createdAt,value
2017-09-16T00:02:35.096Z,45.80
2017-09-16T00:17:35.071Z,45.66
2017-09-16T00:32:35.293Z,45.95
2017-09-16T00:47:35.005Z,45.96
2017-09-16T01:02:34.451Z,46.14
2017-09-16T01:17:35.163Z,46.17
2017-09-16T01:32:34.406Z,46.06
2017-09-16T01:47:34.390Z,46.17
2017-09-16T02:02:34.722Z,46.30
2017-09-16T02:17:34.682Z,46.38
2017-09-16T02:32:36.967Z,46.48
2017-09-16T02:47:37.497Z,46.60
2017-09-16T03:02:35.090Z,46.55
2017-09-16T03:17:35.045Z,46.71
2017-09-16T03:32:35.002Z,47.56
2017-09-16T03:47:34.984Z,50.44
2017-09-16T04:02:46.422Z,48.13
2017-09-16T04:17:34.439Z,47.56
2017-09-16T04:32:36.479Z,48.36
2017-09-16T04:47:34.388Z,50.37
2017-09-16T05:02:34.791Z,50.20
2017-09-16T05:17:34.724Z,49.31
2017-09-16T05:32:36.678Z,46.40
2017-09-16T05:47:34.705Z,44.96
2017-09-16T06:02:37.046Z,43.16
2017-09-16T06:17:35.059Z,41.15
2017-09-16T06:32:35.080Z,39.26
2017-09-16T06:47:37.111Z,37.01
2017-09-16T07:02:34.588Z,35.97
2017-09-16T07:17:34.524Z,33.61
2017-09-16T07:32:34.434Z,33.00
2017-09-16T07:47:34.456Z,31.44
2017-09-16T08:02:34.808Z,30.17
2017-09-16T08:17:34.827Z,29.79
2017-09-16T08:32:36.799Z,29.20
2017-09-16T08:47:34.792Z,28.33
2017-09-16T09:02:35.169Z,28.04
2017-09-16T09:17:35.162Z,27.25
2017-09-16T09:32:35.177Z,26.69
2017-09-16T09:47:35.201Z,26.51
2017-09-16T10:02:34.569Z,26.44
2017-09-16T10:17:36.537Z,26.28
2017-09-16T10:32:36.520Z,26.21
2017-09-16T10:47:34.466Z,26.13
2017-09-16T11:02:34.859Z,26.27
2017-09-16T11:17:36.346Z,26.23
2017-09-16T11:32:36.592Z,26.38
2017-09-16T11:47:36.545Z,26.91
2017-09-16T12:02:34.272Z,27.20
2017-09-16T12:17:35.732Z,27.29
2017-09-16T12:32:34.255Z,27.54
2017-09-16T12:47:36.237Z,28.41
2017-09-16T13:02:36.000Z,28.96
2017-09-16T13:17:37.631Z,28.53
2017-09-16T13:32:37.686Z,28.43
2017-09-16T13:47:34.590Z,28.38
2017-09-16T14:02:35.000Z,29.01
2017-09-16T14:17:34.993Z,29.29
2017-09-16T14:32:34.947Z,29.38
2017-09-16T14:47:36.968Z,31.03
2017-09-16T15:02:36.359Z,32.10
2017-09-16T15:17:34.322Z,33.92
2017-09-16T15:32:34.356Z,34.70
2017-09-16T15:47:34.381Z,34.81
2017-09-16T16:02:34.864Z,35.49
2017-09-16T16:17:34.838Z,37.05
2017-09-16T16:32:34.787Z,39.61
2017-09-16T16:47:36.787Z,39.86
2017-09-16T17:02:35.737Z,39.03
2017-09-16T17:17:36.146Z,40.48
2017-09-16T17:32:35.081Z,41.77
2017-09-16T17:47:36.536Z,41.34
2017-09-16T18:02:34.671Z,41.35
2017-09-16T18:17:34.583Z,39.63
2017-09-16T18:32:34.579Z,42.06
2017-09-16T18:47:36.574Z,42.60
2017-09-16T19:02:34.981Z,42.76
2017-09-16T19:17:35.025Z,45.42
2017-09-16T19:32:34.981Z,44.85
2017-09-16T19:47:34.930Z,44.42
2017-09-16T20:02:34.401Z,44.43
2017-09-16T20:17:34.388Z,44.34
2017-09-16T20:32:34.363Z,44.43
2017-09-16T20:47:34.389Z,44.55
2017-09-16T21:02:34.757Z,44.58
2017-09-16T21:17:34.765Z,44.49
2017-09-16T21:32:34.712Z,44.63
2017-09-16T21:47:34.800Z,44.56
2017-09-16T22:02:35.161Z,44.45
2017-09-16T22:17:35.451Z,44.25
2017-09-16T22:32:35.115Z,44.39
2017-09-16T22:47:35.060Z,44.82
2017-09-16T23:02:34.493Z,44.84
2017-09-16T23:17:34.513Z,44.83
2017-09-16T23:32:34.483Z,44.92
2017-09-16T23:47:37.440Z,44.94
